sensor_id;sensor_type;location;lat;lon;timestamp;P1;durP1;ratioP1;P2;durP2;ratioP2
24151;SDS011;12311;50.866;4.332;2024-01-15T00:01:54;30.17;;;8.02;;
24151;SDS011;12311;50.866;4.332;2024-01-15T00:04:20;18.15;;;7.85;;
24151;SDS011;12311;50.866;4.332;2024-01-15T00:06:46;19.52;;;6.13;;
24151;SDS011;12311;50.866;4.332;2024-01-15T00:09:11;17.67;;;6.57;;
24151;SDS011;12311;50.866;4.332;2024-01-15T00:11:37;23.55;;;7.00;;
24151;SDS011;12311;50.866;4.332;2024-01-15T00:14:03;19.42;;;6.93;;
24151;SDS011;12311;50.866;4.332;2024-01-15T00:16:28;17.20;;;6.78;;
24151;SDS011;12311;50.866;4.332;2024-01-15T00:18:54;20.13;;;5.88;;
24151;SDS011;12311;50.866;4.332;2024-01-15T00:21:19;14.45;;;6.47;;
24151;SDS011;12311;50.866;4.332;2024-01-15T00:23:45;17.27;;;6.95;;
24151;SDS011;12311;50.866;4.332;2024-01-15T00:26:11;18.88;;;6.55;;
24151;SDS011;12311;50.866;4.332;2024-01-15T00:28:37;21.50;;;6.43;;
24151;SDS011;12311;50.866;4.332;2024-01-15T00:31:06;17.98;;;5.90;;
24151;SDS011;12311;50.866;4.332;2024-01-15T00:33:33;17.45;;;6.35;;
24151;SDS011;12311;50.866;4.332;2024-01-15T00:35:59;17.90;;;5.82;;
24151;SDS011;12311;50.866;4.332;2024-01-15T00:38:24;16.45;;;5.38;;
24151;SDS011;12311;50.866;4.332;2024-01-15T00:40:50;13.18;;;5.10;;
24151;SDS011;12311;50.866;4.332;2024-01-15T00:43:16;19.65;;;6.63;;
24151;SDS011;12311;50.866;4.332;2024-01-15T00:45:44;13.30;;;5.40;;
24151;SDS011;12311;50.866;4.332;2024-01-15T00:48:10;12.70;;;4.90;;
24151;SDS011;12311;50.866;4.332;2024-01-15T00:50:35;13.73;;;5.18;;
24151;SDS011;12311;50.866;4.332;2024-01-15T00:53:01;14.30;;;4.97;;
24151;SDS011;12311;50.866;4.332;2024-01-15T00:55:28;11.07;;;4.28;;
24151;SDS011;12311;50.866;4.332;2024-01-15T00:57:54;9.23;;;3.95;;
24151;SDS011;12311;50.866;4.332;2024-01-15T01:00:20;9.10;;;3.65;;
24151;SDS011;12311;50.866;4.332;2024-01-15T01:02:45;10.88;;;3.95;;
24151;SDS011;12311;50.866;4.332;2024-01-15T01:05:11;9.93;;;3.47;;
24151;SDS011;12311;50.866;4.332;2024-01-15T01:07:37;8.18;;;3.33;;
24151;SDS011;12311;50.866;4.332;2024-01-15T01:10:03;8.15;;;3.78;;
24151;SDS011;12311;50.866;4.332;2024-01-15T01:12:29;6.93;;;2.78;;
24151;SDS011;12311;50.866;4.332;2024-01-15T01:14:55;10.77;;;3.92;;
24151;SDS011;12311;50.866;4.332;2024-01-15T01:17:21;7.75;;;3.05;;
24151;SDS011;12311;50.866;4.332;2024-01-15T01:19:47;7.15;;;2.88;;
24151;SDS011;12311;50.866;4.332;2024-01-15T01:22:12;5.97;;;3.08;;
24151;SDS011;12311;50.866;4.332;2024-01-15T01:24:38;9.10;;;3.63;;
24151;SDS011;12311;50.866;4.332;2024-01-15T01:27:04;6.00;;;2.72;;
24151;SDS011;12311;50.866;4.332;2024-01-15T01:29:30;7.53;;;3.03;;
24151;SDS011;12311;50.866;4.332;2024-01-15T01:31:55;4.70;;;2.30;;
24151;SDS011;12311;50.866;4.332;2024-01-15T01:34:21;7.35;;;2.85;;
24151;SDS011;12311;50.866;4.332;2024-01-15T01:36:47;5.57;;;2.03;;
24151;SDS011;12311;50.866;4.332;2024-01-15T01:39:13;5.57;;;2.65;;
24151;SDS011;12311;50.866;4.332;2024-01-15T01:41:39;5.15;;;2.20;;
24151;SDS011;12311;50.866;4.332;2024-01-15T01:44:05;5.82;;;2.22;;
24151;SDS011;12311;50.866;4.332;2024-01-15T01:46:32;6.07;;;1.98;;
24151;SDS011;12311;50.866;4.332;2024-01-15T01:48:58;6.82;;;2.53;;
24151;SDS011;12311;50.866;4.332;2024-01-15T01:51:30;6.03;;;2.50;;
24151;SDS011;12311;50.866;4.332;2024-01-15T01:53:56;2.78;;;1.83;;
24151;SDS011;12311;50.866;4.332;2024-01-15T01:56:22;7.20;;;2.00;;
24151;SDS011;12311;50.866;4.332;2024-01-15T01:58:48;4.45;;;2.05;;
24151;SDS011;12311;50.866;4.332;2024-01-15T02:01:14;5.30;;;2.42;;
24151;SDS011;12311;50.866;4.332;2024-01-15T02:03:40;4.28;;;1.65;;
24151;SDS011;12311;50.866;4.332;2024-01-15T02:06:06;4.93;;;2.10;;
24151;SDS011;12311;50.866;4.332;2024-01-15T02:08:33;4.18;;;2.10;;
24151;SDS011;12311;50.866;4.332;2024-01-15T02:10:59;2.58;;;1.77;;
24151;SDS011;12311;50.866;4.332;2024-01-15T02:13:25;5.63;;;2.15;;
24151;SDS011;12311;50.866;4.332;2024-01-15T02:15:51;2.83;;;1.80;;
24151;SDS011;12311;50.866;4.332;2024-01-15T02:18:17;5.68;;;1.55;;
24151;SDS011;12311;50.866;4.332;2024-01-15T02:20:42;2.33;;;1.40;;
24151;SDS011;12311;50.866;4.332;2024-01-15T02:23:12;3.92;;;1.52;;
24151;SDS011;12311;50.866;4.332;2024-01-15T02:25:39;2.83;;;1.70;;
24151;SDS011;12311;50.866;4.332;2024-01-15T02:28:07;4.95;;;1.63;;
24151;SDS011;12311;50.866;4.332;2024-01-15T02:30:37;3.88;;;1.67;;
24151;SDS011;12311;50.866;4.332;2024-01-15T02:35:32;1.80;;;1.15;;
24151;SDS011;12311;50.866;4.332;2024-01-15T02:37:58;4.32;;;1.50;;
24151;SDS011;12311;50.866;4.332;2024-01-15T02:40:24;4.82;;;1.77;;
24151;SDS011;12311;50.866;4.332;2024-01-15T02:42:49;3.40;;;1.58;;
24151;SDS011;12311;50.866;4.332;2024-01-15T02:45:15;3.35;;;2.20;;
24151;SDS011;12311;50.866;4.332;2024-01-15T02:47:41;2.72;;;1.88;;
24151;SDS011;12311;50.866;4.332;2024-01-15T02:50:07;7.20;;;2.35;;
24151;SDS011;12311;50.866;4.332;2024-01-15T02:52:33;6.82;;;2.00;;
24151;SDS011;12311;50.866;4.332;2024-01-15T02:54:59;5.60;;;2.30;;
24151;SDS011;12311;50.866;4.332;2024-01-15T02:57:24;6.28;;;2.30;;
24151;SDS011;12311;50.866;4.332;2024-01-15T02:59:50;6.07;;;2.33;;
24151;SDS011;12311;50.866;4.332;2024-01-15T03:02:16;6.15;;;2.30;;
24151;SDS011;12311;50.866;4.332;2024-01-15T03:04:44;6.57;;;2.78;;
24151;SDS011;12311;50.866;4.332;2024-01-15T03:07:10;5.32;;;2.80;;
24151;SDS011;12311;50.866;4.332;2024-01-15T03:09:36;9.50;;;3.15;;
24151;SDS011;12311;50.866;4.332;2024-01-15T03:12:02;5.90;;;3.13;;
24151;SDS011;12311;50.866;4.332;2024-01-15T03:14:28;6.90;;;3.30;;
24151;SDS011;12311;50.866;4.332;2024-01-15T03:16:54;8.52;;;3.70;;
24151;SDS011;12311;50.866;4.332;2024-01-15T03:19:20;6.93;;;3.78;;
24151;SDS011;12311;50.866;4.332;2024-01-15T03:21:46;16.05;;;3.60;;
24151;SDS011;12311;50.866;4.332;2024-01-15T03:24:11;9.75;;;4.28;;
24151;SDS011;12311;50.866;4.332;2024-01-15T03:26:37;9.00;;;3.53;;
24151;SDS011;12311;50.866;4.332;2024-01-15T03:29:03;15.32;;;4.30;;
24151;SDS011;12311;50.866;4.332;2024-01-15T03:31:28;11.93;;;4.45;;
24151;SDS011;12311;50.866;4.332;2024-01-15T03:33:54;9.15;;;3.92;;
24151;SDS011;12311;50.866;4.332;2024-01-15T03:36:20;12.15;;;4.00;;
24151;SDS011;12311;50.866;4.332;2024-01-15T03:38:46;9.77;;;3.92;;
24151;SDS011;12311;50.866;4.332;2024-01-15T03:41:11;9.15;;;3.70;;
24151;SDS011;12311;50.866;4.332;2024-01-15T03:43:37;10.55;;;4.18;;
24151;SDS011;12311;50.866;4.332;2024-01-15T03:46:03;8.48;;;3.88;;
24151;SDS011;12311;50.866;4.332;2024-01-15T03:48:29;10.75;;;3.97;;
24151;SDS011;12311;50.866;4.332;2024-01-15T03:50:55;11.55;;;4.60;;
24151;SDS011;12311;50.866;4.332;2024-01-15T03:53:21;10.30;;;4.80;;
24151;SDS011;12311;50.866;4.332;2024-01-15T03:55:46;14.07;;;4.78;;
24151;SDS011;12311;50.866;4.332;2024-01-15T03:58:12;10.40;;;4.18;;
24151;SDS011;12311;50.866;4.332;2024-01-15T04:00:40;11.85;;;4.60;;
24151;SDS011;12311;50.866;4.332;2024-01-15T04:03:06;14.68;;;5.22;;
24151;SDS011;12311;50.866;4.332;2024-01-15T04:05:31;12.90;;;4.70;;
24151;SDS011;12311;50.866;4.332;2024-01-15T04:07:57;14.23;;;4.95;;
24151;SDS011;12311;50.866;4.332;2024-01-15T04:10:23;20.60;;;5.93;;
24151;SDS011;12311;50.866;4.332;2024-01-15T04:12:48;15.38;;;5.07;;
24151;SDS011;12311;50.866;4.332;2024-01-15T04:15:14;15.32;;;5.85;;
24151;SDS011;12311;50.866;4.332;2024-01-15T04:17:40;12.80;;;5.70;;
24151;SDS011;12311;50.866;4.332;2024-01-15T04:20:06;15.02;;;5.45;;
24151;SDS011;12311;50.866;4.332;2024-01-15T04:22:33;16.23;;;5.88;;
24151;SDS011;12311;50.866;4.332;2024-01-15T04:25:00;13.80;;;6.13;;
24151;SDS011;12311;50.866;4.332;2024-01-15T04:27:26;17.98;;;6.68;;
24151;SDS011;12311;50.866;4.332;2024-01-15T04:29:52;16.35;;;5.70;;
24151;SDS011;12311;50.866;4.332;2024-01-15T04:32:18;15.38;;;6.32;;
24151;SDS011;12311;50.866;4.332;2024-01-15T04:34:43;11.40;;;5.88;;
24151;SDS011;12311;50.866;4.332;2024-01-15T04:37:09;13.73;;;5.63;;
24151;SDS011;12311;50.866;4.332;2024-01-15T04:39:35;10.43;;;4.60;;
24151;SDS011;12311;50.866;4.332;2024-01-15T04:42:01;13.10;;;4.40;;
24151;SDS011;12311;50.866;4.332;2024-01-15T04:44:26;8.48;;;3.72;;
24151;SDS011;12311;50.866;4.332;2024-01-15T04:46:52;7.22;;;3.40;;
24151;SDS011;12311;50.866;4.332;2024-01-15T04:49:18;9.52;;;3.63;;
24151;SDS011;12311;50.866;4.332;2024-01-15T04:51:43;9.32;;;3.05;;
24151;SDS011;12311;50.866;4.332;2024-01-15T04:54:09;5.70;;;2.72;;
24151;SDS011;12311;50.866;4.332;2024-01-15T04:56:35;5.82;;;2.88;;
24151;SDS011;12311;50.866;4.332;2024-01-15T04:59:00;4.82;;;2.60;;
24151;SDS011;12311;50.866;4.332;2024-01-15T05:01:30;6.50;;;2.85;;
24151;SDS011;12311;50.866;4.332;2024-01-15T05:03:59;4.20;;;2.10;;
24151;SDS011;12311;50.866;4.332;2024-01-15T05:06:25;5.35;;;2.22;;
24151;SDS011;12311;50.866;4.332;2024-01-15T05:08:50;3.47;;;1.77;;
24151;SDS011;12311;50.866;4.332;2024-01-15T05:11:16;3.78;;;1.90;;
24151;SDS011;12311;50.866;4.332;2024-01-15T05:13:42;3.85;;;1.85;;
24151;SDS011;12311;50.866;4.332;2024-01-15T05:16:08;5.10;;;1.73;;
24151;SDS011;12311;50.866;4.332;2024-01-15T05:18:33;3.58;;;1.67;;
24151;SDS011;12311;50.866;4.332;2024-01-15T05:20:59;2.90;;;1.73;;
24151;SDS011;12311;50.866;4.332;2024-01-15T05:23:25;3.67;;;1.73;;
24151;SDS011;12311;50.866;4.332;2024-01-15T05:25:50;2.70;;;1.10;;
24151;SDS011;12311;50.866;4.332;2024-01-15T05:28:16;1.95;;;1.42;;
24151;SDS011;12311;50.866;4.332;2024-01-15T05:30:42;1.92;;;1.35;;
24151;SDS011;12311;50.866;4.332;2024-01-15T05:33:07;3.83;;;1.50;;
24151;SDS011;12311;50.866;4.332;2024-01-15T05:35:33;3.47;;;1.20;;
24151;SDS011;12311;50.866;4.332;2024-01-15T05:37:59;2.83;;;1.30;;
24151;SDS011;12311;50.866;4.332;2024-01-15T05:40:25;2.03;;;1.13;;
24151;SDS011;12311;50.866;4.332;2024-01-15T05:42:50;3.13;;;1.13;;
24151;SDS011;12311;50.866;4.332;2024-01-15T05:45:16;1.85;;;0.82;;
24151;SDS011;12311;50.866;4.332;2024-01-15T05:47:42;5.38;;;1.20;;
24151;SDS011;12311;50.866;4.332;2024-01-15T05:50:09;1.33;;;1.00;;
24151;SDS011;12311;50.866;4.332;2024-01-15T05:52:35;3.70;;;1.27;;
24151;SDS011;12311;50.866;4.332;2024-01-15T05:55:00;2.63;;;0.90;;
24151;SDS011;12311;50.866;4.332;2024-01-15T05:57:26;3.53;;;1.00;;
24151;SDS011;12311;50.866;4.332;2024-01-15T05:59:52;2.40;;;1.00;;
24151;SDS011;12311;50.866;4.332;2024-01-15T06:02:18;1.25;;;0.88;;
24151;SDS011;12311;50.866;4.332;2024-01-15T06:04:44;5.70;;;1.02;;
24151;SDS011;12311;50.866;4.332;2024-01-15T06:07:10;1.95;;;0.90;;
24151;SDS011;12311;50.866;4.332;2024-01-15T06:09:35;0.80;;;0.80;;
24151;SDS011;12311;50.866;4.332;2024-01-15T06:12:01;1.90;;;0.90;;
24151;SDS011;12311;50.866;4.332;2024-01-15T06:14:27;3.67;;;1.00;;
24151;SDS011;12311;50.866;4.332;2024-01-15T06:16:52;1.27;;;0.80;;
24151;SDS011;12311;50.866;4.332;2024-01-15T06:19:18;0.98;;;0.80;;
24151;SDS011;12311;50.866;4.332;2024-01-15T06:21:44;1.38;;;1.00;;
24151;SDS011;12311;50.866;4.332;2024-01-15T06:24:09;4.15;;;0.93;;
24151;SDS011;12311;50.866;4.332;2024-01-15T06:26:35;1.80;;;1.10;;
24151;SDS011;12311;50.866;4.332;2024-01-15T06:29:01;4.82;;;1.08;;
24151;SDS011;12311;50.866;4.332;2024-01-15T06:31:28;3.75;;;1.50;;
24151;SDS011;12311;50.866;4.332;2024-01-15T06:33:54;1.08;;;0.90;;
24151;SDS011;12311;50.866;4.332;2024-01-15T06:36:20;1.17;;;1.02;;
24151;SDS011;12311;50.866;4.332;2024-01-15T06:38:45;2.85;;;1.10;;
24151;SDS011;12311;50.866;4.332;2024-01-15T06:41:11;3.28;;;1.10;;
24151;SDS011;12311;50.866;4.332;2024-01-15T06:43:37;1.90;;;1.00;;
24151;SDS011;12311;50.866;4.332;2024-01-15T06:46:02;15.48;;;5.53;;
24151;SDS011;12311;50.866;4.332;2024-01-15T06:48:28;3.95;;;1.75;;
24151;SDS011;12311;50.866;4.332;2024-01-15T06:50:54;1.45;;;1.10;;
24151;SDS011;12311;50.866;4.332;2024-01-15T06:53:19;2.10;;;1.50;;
24151;SDS011;12311;50.866;4.332;2024-01-15T06:55:45;2.55;;;1.38;;
24151;SDS011;12311;50.866;4.332;2024-01-15T06:58:11;3.83;;;1.70;;
24151;SDS011;12311;50.866;4.332;2024-01-15T07:00:37;1.60;;;1.20;;
24151;SDS011;12311;50.866;4.332;2024-01-15T07:03:03;2.88;;;1.50;;
24151;SDS011;12311;50.866;4.332;2024-01-15T07:05:29;5.22;;;1.90;;
24151;SDS011;12311;50.866;4.332;2024-01-15T07:07:55;2.70;;;1.48;;
24151;SDS011;12311;50.866;4.332;2024-01-15T07:10:21;6.43;;;1.30;;
24151;SDS011;12311;50.866;4.332;2024-01-15T07:12:47;5.50;;;1.13;;
24151;SDS011;12311;50.866;4.332;2024-01-15T07:15:13;1.88;;;1.20;;
24151;SDS011;12311;50.866;4.332;2024-01-15T07:17:39;3.58;;;1.17;;
24151;SDS011;12311;50.866;4.332;2024-01-15T07:20:08;3.42;;;0.93;;
24151;SDS011;12311;50.866;4.332;2024-01-15T07:22:37;5.05;;;1.05;;
24151;SDS011;12311;50.866;4.332;2024-01-15T07:25:03;1.92;;;1.10;;
24151;SDS011;12311;50.866;4.332;2024-01-15T07:27:30;2.65;;;1.48;;
24151;SDS011;12311;50.866;4.332;2024-01-15T07:29:56;2.72;;;1.35;;
24151;SDS011;12311;50.866;4.332;2024-01-15T07:32:22;3.13;;;1.90;;
24151;SDS011;12311;50.866;4.332;2024-01-15T07:34:48;4.93;;;2.13;;
24151;SDS011;12311;50.866;4.332;2024-01-15T07:37:14;3.28;;;1.70;;
24151;SDS011;12311;50.866;4.332;2024-01-15T07:39:40;3.22;;;1.60;;
24151;SDS011;12311;50.866;4.332;2024-01-15T07:42:05;4.97;;;1.92;;
24151;SDS011;12311;50.866;4.332;2024-01-15T07:44:32;3.03;;;1.60;;
24151;SDS011;12311;50.866;4.332;2024-01-15T07:46:58;3.03;;;1.80;;
24151;SDS011;12311;50.866;4.332;2024-01-15T07:49:24;3.25;;;1.63;;
24151;SDS011;12311;50.866;4.332;2024-01-15T07:51:49;4.35;;;2.50;;
24151;SDS011;12311;50.866;4.332;2024-01-15T07:54:15;4.35;;;1.95;;
24151;SDS011;12311;50.866;4.332;2024-01-15T07:56:56;4.93;;;3.15;;
24151;SDS011;12311;50.866;4.332;2024-01-15T07:59:25;3.80;;;2.03;;
24151;SDS011;12311;50.866;4.332;2024-01-15T08:01:51;3.33;;;1.75;;
24151;SDS011;12311;50.866;4.332;2024-01-15T08:04:17;3.50;;;1.98;;
24151;SDS011;12311;50.866;4.332;2024-01-15T08:06:43;4.80;;;2.25;;
24151;SDS011;12311;50.866;4.332;2024-01-15T08:09:10;4.05;;;2.08;;
24151;SDS011;12311;50.866;4.332;2024-01-15T08:11:36;6.10;;;2.05;;
24151;SDS011;12311;50.866;4.332;2024-01-15T08:14:06;6.03;;;2.22;;
24151;SDS011;12311;50.866;4.332;2024-01-15T08:16:32;4.22;;;2.03;;
24151;SDS011;12311;50.866;4.332;2024-01-15T08:18:57;4.75;;;1.60;;
24151;SDS011;12311;50.866;4.332;2024-01-15T08:21:24;8.50;;;2.70;;
24151;SDS011;12311;50.866;4.332;2024-01-15T08:23:49;6.15;;;1.95;;
24151;SDS011;12311;50.866;4.332;2024-01-15T08:26:15;7.00;;;1.80;;
24151;SDS011;12311;50.866;4.332;2024-01-15T08:28:41;3.58;;;1.70;;
24151;SDS011;12311;50.866;4.332;2024-01-15T08:31:06;14.50;;;2.60;;
24151;SDS011;12311;50.866;4.332;2024-01-15T08:33:32;2.47;;;1.42;;
24151;SDS011;12311;50.866;4.332;2024-01-15T08:35:58;2.70;;;1.60;;
24151;SDS011;12311;50.866;4.332;2024-01-15T08:38:24;5.68;;;2.38;;
24151;SDS011;12311;50.866;4.332;2024-01-15T08:40:50;2.30;;;1.50;;
24151;SDS011;12311;50.866;4.332;2024-01-15T08:43:18;3.13;;;1.52;;
24151;SDS011;12311;50.866;4.332;2024-01-15T08:45:44;4.40;;;1.50;;
24151;SDS011;12311;50.866;4.332;2024-01-15T08:48:10;5.25;;;1.50;;
24151;SDS011;12311;50.866;4.332;2024-01-15T08:50:36;2.78;;;1.25;;
24151;SDS011;12311;50.866;4.332;2024-01-15T08:53:01;5.88;;;1.45;;
24151;SDS011;12311;50.866;4.332;2024-01-15T08:55:27;2.28;;;1.60;;
24151;SDS011;12311;50.866;4.332;2024-01-15T08:57:53;3.28;;;1.42;;
24151;SDS011;12311;50.866;4.332;2024-01-15T09:00:19;4.03;;;1.20;;
24151;SDS011;12311;50.866;4.332;2024-01-15T09:02:45;4.57;;;1.55;;
24151;SDS011;12311;50.866;4.332;2024-01-15T09:05:11;6.13;;;1.30;;
24151;SDS011;12311;50.866;4.332;2024-01-15T09:07:36;3.97;;;1.25;;
24151;SDS011;12311;50.866;4.332;2024-01-15T09:10:02;4.15;;;1.20;;
24151;SDS011;12311;50.866;4.332;2024-01-15T09:12:28;3.63;;;1.23;;
24151;SDS011;12311;50.866;4.332;2024-01-15T09:14:54;4.72;;;1.20;;
24151;SDS011;12311;50.866;4.332;2024-01-15T09:17:20;3.45;;;1.10;;
24151;SDS011;12311;50.866;4.332;2024-01-15T09:19:48;3.65;;;1.10;;
24151;SDS011;12311;50.866;4.332;2024-01-15T09:22:14;2.80;;;1.20;;
24151;SDS011;12311;50.866;4.332;2024-01-15T09:24:43;5.05;;;1.10;;
24151;SDS011;12311;50.866;4.332;2024-01-15T09:27:09;2.97;;;1.00;;
24151;SDS011;12311;50.866;4.332;2024-01-15T09:29:35;1.45;;;0.93;;
24151;SDS011;12311;50.866;4.332;2024-01-15T09:32:04;3.50;;;1.00;;
24151;SDS011;12311;50.866;4.332;2024-01-15T09:34:30;4.25;;;0.95;;
24151;SDS011;12311;50.866;4.332;2024-01-15T09:36:56;4.05;;;1.55;;
24151;SDS011;12311;50.866;4.332;2024-01-15T09:39:22;3.08;;;1.27;;
24151;SDS011;12311;50.866;4.332;2024-01-15T09:41:48;2.58;;;1.25;;
24151;SDS011;12311;50.866;4.332;2024-01-15T09:44:14;2.28;;;0.80;;
24151;SDS011;12311;50.866;4.332;2024-01-15T09:46:42;6.65;;;1.42;;
24151;SDS011;12311;50.866;4.332;2024-01-15T09:49:09;2.92;;;1.35;;
24151;SDS011;12311;50.866;4.332;2024-01-15T09:51:35;8.82;;;1.20;;
24151;SDS011;12311;50.866;4.332;2024-01-15T09:54:01;2.50;;;1.00;;
24151;SDS011;12311;50.866;4.332;2024-01-15T09:56:29;4.22;;;1.42;;
24151;SDS011;12311;50.866;4.332;2024-01-15T09:58:56;1.42;;;1.00;;
24151;SDS011;12311;50.866;4.332;2024-01-15T10:01:23;1.88;;;1.20;;
24151;SDS011;12311;50.866;4.332;2024-01-15T10:03:49;6.15;;;1.30;;
24151;SDS011;12311;50.866;4.332;2024-01-15T10:06:16;1.60;;;0.95;;
24151;SDS011;12311;50.866;4.332;2024-01-15T10:08:43;4.03;;;1.00;;
24151;SDS011;12311;50.866;4.332;2024-01-15T10:11:13;5.10;;;1.38;;
24151;SDS011;12311;50.866;4.332;2024-01-15T10:13:39;2.67;;;1.42;;
24151;SDS011;12311;50.866;4.332;2024-01-15T10:16:05;6.95;;;1.40;;
24151;SDS011;12311;50.866;4.332;2024-01-15T10:18:31;2.78;;;1.05;;
24151;SDS011;12311;50.866;4.332;2024-01-15T10:20:57;1.42;;;0.88;;
24151;SDS011;12311;50.866;4.332;2024-01-15T10:23:24;4.65;;;1.20;;
24151;SDS011;12311;50.866;4.332;2024-01-15T10:25:49;1.75;;;1.17;;
24151;SDS011;12311;50.866;4.332;2024-01-15T10:28:16;5.03;;;1.00;;
24151;SDS011;12311;50.866;4.332;2024-01-15T10:30:44;3.45;;;1.33;;
24151;SDS011;12311;50.866;4.332;2024-01-15T10:33:10;1.33;;;1.00;;
24151;SDS011;12311;50.866;4.332;2024-01-15T10:35:37;2.35;;;1.30;;
24151;SDS011;12311;50.866;4.332;2024-01-15T10:38:03;1.08;;;0.70;;
24151;SDS011;12311;50.866;4.332;2024-01-15T10:40:30;4.22;;;1.33;;
24151;SDS011;12311;50.866;4.332;2024-01-15T10:42:57;3.05;;;1.15;;
24151;SDS011;12311;50.866;4.332;2024-01-15T10:45:23;2.65;;;1.00;;
24151;SDS011;12311;50.866;4.332;2024-01-15T10:47:49;3.10;;;0.98;;
24151;SDS011;12311;50.866;4.332;2024-01-15T10:50:15;2.60;;;1.20;;
24151;SDS011;12311;50.866;4.332;2024-01-15T10:52:41;1.67;;;0.90;;
24151;SDS011;12311;50.866;4.332;2024-01-15T10:55:08;1.85;;;1.20;;
24151;SDS011;12311;50.866;4.332;2024-01-15T10:57:38;3.85;;;1.17;;
24151;SDS011;12311;50.866;4.332;2024-01-15T11:00:04;4.45;;;1.10;;
24151;SDS011;12311;50.866;4.332;2024-01-15T11:02:35;1.15;;;0.88;;
24151;SDS011;12311;50.866;4.332;2024-01-15T11:05:02;1.85;;;1.02;;
24151;SDS011;12311;50.866;4.332;2024-01-15T11:07:29;6.28;;;1.55;;
24151;SDS011;12311;50.866;4.332;2024-01-15T11:09:57;1.73;;;1.10;;
24151;SDS011;12311;50.866;4.332;2024-01-15T11:12:25;1.40;;;0.98;;
24151;SDS011;12311;50.866;4.332;2024-01-15T11:14:51;6.07;;;1.13;;
24151;SDS011;12311;50.866;4.332;2024-01-15T11:17:19;8.52;;;1.20;;
24151;SDS011;12311;50.866;4.332;2024-01-15T11:19:45;6.72;;;1.60;;
24151;SDS011;12311;50.866;4.332;2024-01-15T11:24:57;2.70;;;0.85;;
24151;SDS011;12311;50.866;4.332;2024-01-15T11:27:40;4.25;;;1.10;;
24151;SDS011;12311;50.866;4.332;2024-01-15T11:30:08;5.53;;;1.00;;
24151;SDS011;12311;50.866;4.332;2024-01-15T11:32:35;1.80;;;0.85;;
24151;SDS011;12311;50.866;4.332;2024-01-15T11:35:02;3.17;;;1.10;;
24151;SDS011;12311;50.866;4.332;2024-01-15T11:38:13;2.80;;;1.20;;
24151;SDS011;12311;50.866;4.332;2024-01-15T11:40:20;2.33;;;0.80;;
24151;SDS011;12311;50.866;4.332;2024-01-15T11:42:48;7.73;;;1.00;;
24151;SDS011;12311;50.866;4.332;2024-01-15T11:45:20;3.55;;;0.88;;
24151;SDS011;12311;50.866;4.332;2024-01-15T11:50:35;2.85;;;0.98;;
24151;SDS011;12311;50.866;4.332;2024-01-15T11:53:05;2.22;;;1.00;;
24151;SDS011;12311;50.866;4.332;2024-01-15T11:56:01;1.80;;;0.85;;
24151;SDS011;12311;50.866;4.332;2024-01-15T11:58:28;2.15;;;0.75;;
24151;SDS011;12311;50.866;4.332;2024-01-15T12:00:53;3.38;;;1.20;;
24151;SDS011;12311;50.866;4.332;2024-01-15T12:03:21;2.35;;;0.70;;
24151;SDS011;12311;50.866;4.332;2024-01-15T12:05:48;3.22;;;0.75;;
24151;SDS011;12311;50.866;4.332;2024-01-15T12:08:13;1.20;;;0.90;;
24151;SDS011;12311;50.866;4.332;2024-01-15T12:10:39;2.10;;;1.00;;
24151;SDS011;12311;50.866;4.332;2024-01-15T12:13:15;3.20;;;1.38;;
24151;SDS011;12311;50.866;4.332;2024-01-15T12:15:43;1.25;;;0.77;;
24151;SDS011;12311;50.866;4.332;2024-01-15T12:18:11;5.85;;;1.08;;
24151;SDS011;12311;50.866;4.332;2024-01-15T12:20:39;2.95;;;0.95;;
24151;SDS011;12311;50.866;4.332;2024-01-15T12:23:05;1.67;;;1.10;;
24151;SDS011;12311;50.866;4.332;2024-01-15T12:25:31;3.20;;;1.30;;
24151;SDS011;12311;50.866;4.332;2024-01-15T12:27:58;2.58;;;1.10;;
24151;SDS011;12311;50.866;4.332;2024-01-15T12:30:28;2.08;;;0.90;;
24151;SDS011;12311;50.866;4.332;2024-01-15T12:32:56;5.38;;;1.33;;
24151;SDS011;12311;50.866;4.332;2024-01-15T12:35:23;0.98;;;0.77;;
24151;SDS011;12311;50.866;4.332;2024-01-15T12:37:49;2.42;;;1.05;;
24151;SDS011;12311;50.866;4.332;2024-01-15T12:40:18;5.53;;;1.27;;
24151;SDS011;12311;50.866;4.332;2024-01-15T12:42:44;1.25;;;1.00;;
24151;SDS011;12311;50.866;4.332;2024-01-15T12:45:11;3.78;;;1.35;;
24151;SDS011;12311;50.866;4.332;2024-01-15T12:47:38;4.28;;;0.90;;
24151;SDS011;12311;50.866;4.332;2024-01-15T12:50:08;3.92;;;1.17;;
24151;SDS011;12311;50.866;4.332;2024-01-15T12:52:35;4.60;;;1.05;;
24151;SDS011;12311;50.866;4.332;2024-01-15T12:55:03;2.83;;;1.05;;
24151;SDS011;12311;50.866;4.332;2024-01-15T12:57:30;4.60;;;1.13;;
24151;SDS011;12311;50.866;4.332;2024-01-15T12:59:56;6.00;;;1.05;;
24151;SDS011;12311;50.866;4.332;2024-01-15T13:02:21;4.45;;;1.00;;
24151;SDS011;12311;50.866;4.332;2024-01-15T13:04:47;1.25;;;0.73;;
24151;SDS011;12311;50.866;4.332;2024-01-15T13:07:13;1.25;;;0.85;;
24151;SDS011;12311;50.866;4.332;2024-01-15T13:09:39;1.35;;;0.73;;
24151;SDS011;12311;50.866;4.332;2024-01-15T13:12:05;2.28;;;0.82;;
24151;SDS011;12311;50.866;4.332;2024-01-15T13:14:31;1.90;;;1.00;;
24151;SDS011;12311;50.866;4.332;2024-01-15T13:16:58;4.20;;;0.95;;
24151;SDS011;12311;50.866;4.332;2024-01-15T13:19:24;0.93;;;0.80;;
24151;SDS011;12311;50.866;4.332;2024-01-15T13:21:50;6.32;;;1.23;;
24151;SDS011;12311;50.866;4.332;2024-01-15T13:24:16;8.20;;;2.20;;
24151;SDS011;12311;50.866;4.332;2024-01-15T13:26:42;9.10;;;1.23;;
24151;SDS011;12311;50.866;4.332;2024-01-15T13:29:08;4.22;;;0.93;;
24151;SDS011;12311;50.866;4.332;2024-01-15T13:31:34;1.67;;;1.10;;
24151;SDS011;12311;50.866;4.332;2024-01-15T13:34:00;2.92;;;1.02;;
24151;SDS011;12311;50.866;4.332;2024-01-15T13:36:26;4.43;;;0.90;;
24151;SDS011;12311;50.866;4.332;2024-01-15T13:38:52;6.80;;;0.88;;
24151;SDS011;12311;50.866;4.332;2024-01-15T13:41:21;1.10;;;0.90;;
24151;SDS011;12311;50.866;4.332;2024-01-15T13:43:50;6.60;;;1.15;;
24151;SDS011;12311;50.866;4.332;2024-01-15T13:46:18;9.10;;;1.25;;
24151;SDS011;12311;50.866;4.332;2024-01-15T13:48:44;2.45;;;1.20;;
24151;SDS011;12311;50.866;4.332;2024-01-15T13:51:10;4.38;;;1.33;;
24151;SDS011;12311;50.866;4.332;2024-01-15T13:53:40;2.95;;;0.82;;
24151;SDS011;12311;50.866;4.332;2024-01-15T13:56:06;4.07;;;1.05;;
24151;SDS011;12311;50.866;4.332;2024-01-15T13:58:33;2.60;;;1.33;;
24151;SDS011;12311;50.866;4.332;2024-01-15T14:01:00;3.78;;;1.40;;
24151;SDS011;12311;50.866;4.332;2024-01-15T14:03:26;5.13;;;1.30;;
24151;SDS011;12311;50.866;4.332;2024-01-15T14:05:52;2.70;;;1.13;;
24151;SDS011;12311;50.866;4.332;2024-01-15T14:08:17;4.50;;;1.00;;
24151;SDS011;12311;50.866;4.332;2024-01-15T14:10:43;3.47;;;1.83;;
24151;SDS011;12311;50.866;4.332;2024-01-15T14:13:10;3.10;;;1.35;;
24151;SDS011;12311;50.866;4.332;2024-01-15T14:15:35;2.40;;;0.90;;
24151;SDS011;12311;50.866;4.332;2024-01-15T14:18:01;3.15;;;1.10;;
24151;SDS011;12311;50.866;4.332;2024-01-15T14:20:27;4.00;;;1.33;;
24151;SDS011;12311;50.866;4.332;2024-01-15T14:22:53;5.03;;;1.30;;
24151;SDS011;12311;50.866;4.332;2024-01-15T14:25:20;6.72;;;1.55;;
24151;SDS011;12311;50.866;4.332;2024-01-15T14:27:46;4.35;;;1.13;;
24151;SDS011;12311;50.866;4.332;2024-01-15T14:30:12;2.65;;;1.00;;
24151;SDS011;12311;50.866;4.332;2024-01-15T14:32:38;1.90;;;0.90;;
24151;SDS011;12311;50.866;4.332;2024-01-15T14:35:05;2.35;;;1.02;;
24151;SDS011;12311;50.866;4.332;2024-01-15T14:37:33;1.40;;;1.08;;
24151;SDS011;12311;50.866;4.332;2024-01-15T14:39:58;0.90;;;0.73;;
24151;SDS011;12311;50.866;4.332;2024-01-15T14:42:24;1.08;;;0.80;;
24151;SDS011;12311;50.866;4.332;2024-01-15T14:44:50;2.00;;;0.93;;
24151;SDS011;12311;50.866;4.332;2024-01-15T14:47:16;1.83;;;0.93;;
24151;SDS011;12311;50.866;4.332;2024-01-15T14:49:42;6.13;;;1.05;;